Time;durP1;ratioP1;P1;durP2;ratioP2;P2;SDS_P1;SDS_P2;PMS_P1;PMS_P2;Temp;Humidity;BMP_temperature;BMP_pressure;BME280_temperature;BME280_humidity;BME280_pressure;Samples;Min_cycle;Max_cycle;Signal;HPM_P1;HPM_P2
2022/01/06 00:00:39;;;;;;;9.07;3.33;;;4.60;99.90;;;;;;636873;221;26971;-83
2022/01/06 00:03:06;;;;;;;7.73;2.80;;;4.60;99.90;;;;;;636990;225;26817;-83
2022/01/06 00:05:33;;;;;;;3.70;2.47;;;4.50;99.90;;;;;;639722;224;26774;-83
2022/01/06 00:08:01;;;;;;;7.70;2.90;;;4.40;99.90;;;;;;645758;221;26806;-83
2022/01/06 00:10:30;;;;;;;3.77;2.63;;;4.50;99.90;;;;;;648393;221;26565;-83
2022/01/06 00:13:09;;;;;;;3.67;2.20;;;4.50;99.90;;;;;;647994;222;26615;-83
2022/01/06 00:15:43;;;;;;;14.17;2.87;;;4.50;99.90;;;;;;647880;221;26567;-82
2022/01/06 00:23:43;;;;;;;8.43;2.97;;;4.40;99.90;;;;;;639493;222;26518;-83
2022/01/06 00:25:54;;;;;;;4.37;2.53;;;4.50;99.90;;;;;;635445;225;26566;-82
2022/01/06 00:28:21;;;;;;;5.37;2.40;;;4.50;99.90;;;;;;637182;224;26905;-83
2022/01/06 00:30:48;;;;;;;7.40;2.90;;;4.50;99.90;;;;;;627964;225;26571;-83
2022/01/06 00:33:15;;;;;;;5.93;3.13;;;4.70;99.90;;;;;;640250;224;26584;-82
2022/01/06 00:35:43;;;;;;;10.97;2.57;;;4.40;99.90;;;;;;640653;224;26576;-82
2022/01/06 00:38:10;;;;;;;4.27;2.80;;;4.40;99.90;;;;;;640636;223;26616;-83
2022/01/06 00:40:38;;;;;;;5.70;2.70;;;4.20;99.90;;;;;;640579;223;26572;-83
2022/01/06 00:43:05;;;;;;;8.57;3.00;;;4.20;99.90;;;;;;638239;223;26806;-82
2022/01/06 00:45:32;;;;;;;5.73;2.60;;;4.00;99.90;;;;;;636871;224;26573;-82
2022/01/06 00:47:59;;;;;;;7.77;3.00;;;3.80;99.90;;;;;;638528;224;26562;-82
2022/01/06 00:50:27;;;;;;;3.13;2.77;;;3.50;99.90;;;;;;640180;224;26604;-82
2022/01/06 00:52:54;;;;;;;3.10;2.80;;;3.50;99.90;;;;;;638638;222;26869;-82
2022/01/06 00:55:22;;;;;;;5.30;3.00;;;3.40;99.90;;;;;;638734;222;26604;-83
2022/01/06 00:57:49;;;;;;;5.20;3.40;;;3.30;99.90;;;;;;641613;222;27176;-82
2022/01/06 01:00:16;;;;;;;3.83;3.23;;;3.30;99.90;;;;;;636708;225;26624;-82
2022/01/06 01:02:44;;;;;;;3.23;2.93;;;3.40;99.90;;;;;;636760;224;26561;-82
2022/01/06 01:05:12;;;;;;;3.43;2.97;;;3.40;99.90;;;;;;647363;219;26525;-82
2022/01/06 01:07:39;;;;;;;4.27;2.77;;;3.30;99.90;;;;;;636867;219;26558;-82
2022/01/06 01:10:07;;;;;;;4.77;2.93;;;3.40;99.90;;;;;;636864;226;26578;-82
2022/01/06 01:12:34;;;;;;;4.93;2.50;;;3.20;99.90;;;;;;636868;225;26902;-82
2022/01/06 01:15:07;;;;;;;2.60;2.37;;;3.30;99.90;;;;;;639489;224;26774;-82
2022/01/06 01:17:31;;;;;;;4.90;2.47;;;3.10;99.90;;;;;;640107;224;26564;-82
2022/01/06 01:19:59;;;;;;;4.53;2.50;;;2.90;99.90;;;;;;642066;222;26826;-82
2022/01/06 01:22:26;;;;;;;4.20;2.30;;;2.80;99.90;;;;;;645938;222;26587;-82
2022/01/06 01:24:54;;;;;;;3.40;2.37;;;3.00;99.90;;;;;;648043;221;26580;-83
2022/01/06 01:27:23;;;;;;;3.20;2.40;;;2.90;99.90;;;;;;647041;221;26862;-82
2022/01/06 01:29:58;;;;;;;4.67;2.40;;;2.80;99.90;;;;;;637888;221;26514;-78
2022/01/06 01:32:27;;;;;;;3.47;2.50;;;2.70;99.90;;;;;;648633;221;26526;-77
2022/01/06 01:34:46;;;;;;;4.83;2.27;;;2.70;99.90;;;;;;649124;221;26815;-78
2022/01/06 01:37:13;;;;;;;2.97;2.33;;;2.60;99.90;;;;;;649510;221;26592;-78
2022/01/06 01:39:40;;;;;;;3.10;2.50;;;2.50;99.90;;;;;;640830;221;26866;-77
2022/01/06 01:42:08;;;;;;;4.77;2.30;;;2.40;99.90;;;;;;640596;223;26580;-78
2022/01/06 01:44:36;;;;;;;2.07;1.97;;;2.40;99.90;;;;;;637926;224;26609;-78
2022/01/06 01:47:13;;;;;;;2.57;2.33;;;2.30;99.90;;;;;;640232;224;26610;-78
2022/01/06 01:49:45;;;;;;;2.57;2.30;;;2.50;99.90;;;;;;636405;225;26894;-77
2022/01/06 01:51:58;;;;;;;3.17;2.57;;;2.50;99.90;;;;;;641135;222;26607;-78
2022/01/06 01:54:26;;;;;;;3.17;2.27;;;2.70;99.90;;;;;;647177;222;26567;-77
2022/01/06 01:56:53;;;;;;;3.87;2.20;;;2.70;99.90;;;;;;646740;222;26818;-78
2022/01/06 01:59:20;;;;;;;3.90;2.30;;;2.80;99.90;;;;;;636862;224;26631;-78
2022/01/06 02:01:48;;;;;;;4.03;2.20;;;2.70;99.90;;;;;;636874;219;27207;-77
2022/01/06 02:04:16;;;;;;;2.53;2.13;;;2.80;99.90;;;;;;636716;225;26599;-78
2022/01/06 02:06:44;;;;;;;3.37;1.90;;;2.80;99.90;;;;;;636726;224;26596;-78
2022/01/06 02:09:11;;;;;;;3.60;2.00;;;2.80;99.90;;;;;;636646;221;26591;-77
2022/01/06 02:11:38;;;;;;;2.30;2.10;;;2.90;99.90;;;;;;636780;224;26588;-78
2022/01/06 02:14:06;;;;;;;2.87;2.37;;;2.80;99.90;;;;;;636626;224;26841;-77
2022/01/06 02:16:33;;;;;;;3.80;2.20;;;2.60;99.90;;;;;;636848;223;26600;-78
2022/01/06 02:19:01;;;;;;;5.17;2.10;;;2.60;99.90;;;;;;636790;224;26577;-78
2022/01/06 02:21:28;;;;;;;3.73;2.30;;;2.60;99.90;;;;;;637108;224;26592;-77
2022/01/06 02:23:55;;;;;;;2.27;2.07;;;2.70;99.90;;;;;;640344;224;26524;-78
2022/01/06 02:26:23;;;;;;;2.50;2.30;;;2.60;99.90;;;;;;640380;224;26806;-78
2022/01/06 02:28:50;;;;;;;2.70;2.20;;;2.60;99.90;;;;;;645557;222;26603;-78
2022/01/06 02:31:17;;;;;;;2.13;1.90;;;2.70;99.90;;;;;;638429;223;26617;-77
2022/01/06 02:33:46;;;;;;;4.70;2.17;;;3.00;99.90;;;;;;638228;222;26524;-77
2022/01/06 02:36:12;;;;;;;7.07;2.20;;;3.00;99.90;;;;;;637788;225;26617;-77
2022/01/06 02:38:39;;;;;;;2.67;2.07;;;2.80;99.90;;;;;;639385;223;26571;-78
2022/01/06 02:41:07;;;;;;;2.50;2.20;;;2.90;99.90;;;;;;640974;221;27245;-78
2022/01/06 02:43:35;;;;;;;3.20;2.60;;;3.20;99.90;;;;;;641080;224;26556;-78
2022/01/06 02:46:02;;;;;;;2.53;2.10;;;3.30;99.90;;;;;;640324;218;26651;-78
2022/01/06 02:48:31;;;;;;;6.37;2.23;;;3.30;99.90;;;;;;649536;221;26622;-78
2022/01/06 02:50:57;;;;;;;4.00;1.80;;;3.50;99.90;;;;;;650017;221;26611;-78
2022/01/06 02:53:24;;;;;;;4.53;2.53;;;3.20;99.90;;;;;;650068;221;27182;-77
2022/01/06 02:55:53;;;;;;;4.63;2.43;;;3.20;99.90;;;;;;642147;221;26572;-78
2022/01/06 02:58:18;;;;;;;2.63;2.00;;;3.20;99.90;;;;;;640589;219;26574;-77
2022/01/06 03:00:46;;;;;;;2.40;2.20;;;3.20;99.90;;;;;;639978;222;26577;-79
2022/01/06 03:03:14;;;;;;;2.93;2.17;;;3.20;99.90;;;;;;637191;225;26784;-78
2022/01/06 03:05:41;;;;;;;5.37;2.07;;;3.10;99.90;;;;;;639044;224;26836;-78
2022/01/06 03:08:08;;;;;;;2.73;1.97;;;2.80;99.90;;;;;;645301;222;26828;-77
2022/01/06 03:10:41;;;;;;;4.00;2.07;;;2.70;99.90;;;;;;646933;222;26622;-77
2022/01/06 03:13:04;;;;;;;4.53;2.10;;;2.60;99.90;;;;;;646675;222;26574;-78
2022/01/06 03:15:31;;;;;;;2.97;1.83;;;2.50;99.90;;;;;;647075;222;26582;-77
2022/01/06 03:17:58;;;;;;;5.13;2.10;;;2.80;99.90;;;;;;649751;221;26518;-78
2022/01/06 03:20:26;;;;;;;6.30;2.30;;;2.60;99.90;;;;;;649717;221;26909;-78
2022/01/06 03:22:53;;;;;;;3.50;1.83;;;2.50;99.90;;;;;;647251;221;26530;-85
2022/01/06 03:25:21;;;;;;;2.93;2.23;;;2.60;99.90;;;;;;636798;225;26575;-79
2022/01/06 03:27:49;;;;;;;3.07;2.77;;;2.50;99.90;;;;;;636862;224;26754;-79
2022/01/06 03:30:16;;;;;;;2.13;1.93;;;2.70;99.90;;;;;;636860;225;26631;-79
2022/01/06 03:32:44;;;;;;;3.03;2.30;;;2.40;99.90;;;;;;638463;222;26771;-79
2022/01/06 03:35:12;;;;;;;3.20;2.03;;;2.30;99.90;;;;;;646869;222;27457;-80
2022/01/06 03:37:39;;;;;;;3.67;2.30;;;2.00;99.90;;;;;;646812;222;26602;-79
2022/01/06 03:40:08;;;;;;;4.00;2.20;;;2.00;99.90;;;;;;646879;222;26631;-80
2022/01/06 03:42:35;;;;;;;2.20;1.97;;;1.90;99.90;;;;;;649031;220;26546;-82
2022/01/06 03:45:02;;;;;;;5.23;2.00;;;2.00;99.90;;;;;;647847;221;26799;-80
2022/01/06 03:47:30;;;;;;;3.03;1.73;;;1.90;99.90;;;;;;640252;218;26537;-85
2022/01/06 03:49:58;;;;;;;3.20;1.90;;;1.80;99.90;;;;;;640796;221;26598;-79
2022/01/06 03:52:25;;;;;;;2.70;1.93;;;1.80;99.90;;;;;;639564;223;27054;-80
2022/01/06 03:54:52;;;;;;;3.17;1.70;;;1.60;99.90;;;;;;641607;223;26489;-84
2022/01/06 03:57:20;;;;;;;2.87;1.80;;;1.50;99.90;;;;;;645735;222;26776;-79
2022/01/06 03:59:48;;;;;;;6.00;2.10;;;1.60;99.90;;;;;;648113;222;26559;-81
2022/01/06 04:02:15;;;;;;;1.97;1.87;;;1.50;99.90;;;;;;647917;222;26541;-82
2022/01/06 04:04:43;;;;;;;3.90;2.13;;;1.50;99.90;;;;;;647961;222;26732;-82
2022/01/06 04:07:10;;;;;;;3.10;2.00;;;1.50;99.90;;;;;;643084;222;26503;-80
2022/01/06 04:09:37;;;;;;;2.43;2.20;;;1.40;99.90;;;;;;637844;222;26843;-80
2022/01/06 04:12:09;;;;;;;2.60;2.10;;;1.30;99.90;;;;;;637839;224;26498;-85
2022/01/06 04:14:32;;;;;;;2.87;2.40;;;1.30;99.90;;;;;;637591;225;26500;-80
2022/01/06 04:17:00;;;;;;;4.87;2.10;;;1.20;99.90;;;;;;628166;225;26920;-79
2022/01/06 04:19:28;;;;;;;4.53;2.30;;;1.10;99.90;;;;;;637465;226;26531;-81
2022/01/06 04:21:56;;;;;;;4.97;2.07;;;1.00;99.90;;;;;;637528;226;26555;-82
2022/01/06 04:24:23;;;;;;;2.10;2.00;;;1.00;99.90;;;;;;637515;226;26534;-80
2022/01/06 04:26:50;;;;;;;3.37;1.90;;;1.10;99.90;;;;;;637527;226;26494;-80
2022/01/06 04:29:17;;;;;;;2.30;2.10;;;1.10;99.90;;;;;;637558;226;26755;-80
2022/01/06 04:31:44;;;;;;;5.40;2.07;;;1.20;99.90;;;;;;638139;224;26535;-85
2022/01/06 04:34:11;;;;;;;2.50;2.00;;;1.30;99.90;;;;;;640185;224;26528;-80
2022/01/06 04:36:46;;;;;;;6.20;2.00;;;1.00;99.90;;;;;;641871;222;26539;-80
2022/01/06 04:39:06;;;;;;;2.37;1.73;;;1.00;99.90;;;;;;647086;222;26560;-80
2022/01/06 04:41:33;;;;;;;4.40;2.17;;;1.00;99.90;;;;;;647595;222;26763;-80
2022/01/06 04:44:00;;;;;;;2.10;1.90;;;0.90;99.90;;;;;;639759;222;26554;-80
2022/01/06 04:46:27;;;;;;;3.30;1.80;;;0.90;99.90;;;;;;650138;221;26477;-80
2022/01/06 04:48:55;;;;;;;1.90;1.80;;;0.90;99.90;;;;;;646743;221;26509;-82
2022/01/06 04:51:22;;;;;;;3.80;1.87;;;0.90;99.90;;;;;;640763;221;26564;-83
2022/01/06 04:53:49;;;;;;;3.33;1.90;;;1.00;99.90;;;;;;644250;220;26764;-84
2022/01/06 04:56:16;;;;;;;2.60;2.40;;;1.10;99.90;;;;;;640821;224;26563;-84
2022/01/06 04:58:43;;;;;;;2.07;1.90;;;0.90;99.90;;;;;;641203;218;26801;-84
2022/01/06 05:01:11;;;;;;;2.83;1.80;;;1.00;99.90;;;;;;641173;223;26648;-83
2022/01/06 05:03:39;;;;;;;2.03;1.83;;;0.90;99.90;;;;;;640887;223;26569;-83
2022/01/06 05:06:07;;;;;;;2.33;2.13;;;0.90;99.90;;;;;;640808;218;27249;-82
2022/01/06 05:08:34;;;;;;;2.30;2.00;;;1.00;99.90;;;;;;640972;223;26528;-82
2022/01/06 05:11:01;;;;;;;3.27;1.90;;;0.80;99.90;;;;;;640926;223;26855;-83
2022/01/06 05:13:29;;;;;;;3.67;1.90;;;0.80;99.90;;;;;;640744;223;26564;-84
2022/01/06 05:15:57;;;;;;;3.87;1.93;;;1.00;99.90;;;;;;638364;224;26604;-86
2022/01/06 05:18:24;;;;;;;2.20;2.10;;;0.90;99.90;;;;;;637463;224;26586;-86
2022/01/06 05:20:51;;;;;;;3.00;2.13;;;0.90;99.90;;;;;;640803;224;26598;-86
2022/01/06 05:23:19;;;;;;;2.40;1.87;;;0.70;99.90;;;;;;641121;222;26803;-85
2022/01/06 05:25:47;;;;;;;3.63;2.37;;;0.70;99.90;;;;;;650220;221;26638;-86
2022/01/06 05:28:14;;;;;;;2.33;1.77;;;0.60;99.90;;;;;;650398;221;26582;-87
2022/01/06 05:30:42;;;;;;;3.33;1.90;;;0.60;99.90;;;;;;648758;221;26898;-83
2022/01/06 05:33:10;;;;;;;2.00;1.90;;;0.50;99.90;;;;;;644735;219;26558;-75
2022/01/06 05:35:36;;;;;;;2.17;1.80;;;0.50;99.90;;;;;;644359;222;26823;-75
2022/01/06 05:38:04;;;;;;;2.27;1.90;;;0.40;99.90;;;;;;640926;222;26482;-77
2022/01/06 05:40:31;;;;;;;2.07;1.97;;;0.40;99.90;;;;;;646596;221;26563;-75
2022/01/06 05:42:59;;;;;;;2.03;1.90;;;0.50;99.90;;;;;;639094;224;26534;-75
2022/01/06 05:45:26;;;;;;;2.03;1.90;;;0.40;99.90;;;;;;642452;222;26765;-75
2022/01/06 05:47:53;;;;;;;2.67;1.93;;;0.50;99.90;;;;;;639838;222;26529;-75
2022/01/06 05:50:20;;;;;;;2.00;1.90;;;0.50;99.90;;;;;;648392;221;27007;-75
2022/01/06 05:52:48;;;;;;;2.83;2.20;;;0.40;99.90;;;;;;645519;222;26574;-76
2022/01/06 05:55:15;;;;;;;1.90;1.80;;;0.40;99.90;;;;;;638844;224;26547;-75
2022/01/06 05:57:42;;;;;;;4.40;2.00;;;0.30;99.90;;;;;;639373;224;26522;-75
2022/01/06 06:00:10;;;;;;;1.93;1.83;;;0.30;99.90;;;;;;641216;222;26807;-75
2022/01/06 06:02:37;;;;;;;2.03;1.93;;;0.30;99.90;;;;;;640457;221;26756;-75
2022/01/06 06:05:04;;;;;;;2.00;1.90;;;0.30;99.90;;;;;;641420;222;26542;-75
2022/01/06 06:07:31;;;;;;;2.30;2.10;;;0.30;99.90;;;;;;642111;224;26529;-75
2022/01/06 06:09:59;;;;;;;2.73;2.17;;;0.30;99.90;;;;;;642026;224;26577;-75
2022/01/06 06:12:26;;;;;;;6.20;2.10;;;0.20;99.90;;;;;;639821;222;26526;-75
2022/01/06 06:14:53;;;;;;;4.60;2.10;;;0.20;99.90;;;;;;638243;223;26554;-75
2022/01/06 06:17:20;;;;;;;2.83;2.10;;;0.20;99.90;;;;;;639661;224;26764;-75
2022/01/06 06:19:47;;;;;;;5.13;2.20;;;0.10;99.90;;;;;;639588;221;26603;-75
2022/01/06 06:22:15;;;;;;;5.83;2.43;;;0.20;99.90;;;;;;640362;224;26798;-75
2022/01/06 06:24:44;;;;;;;3.93;1.90;;;0.10;99.90;;;;;;648022;218;26577;-75
2022/01/06 06:27:10;;;;;;;4.77;2.23;;;0.10;99.90;;;;;;645594;221;26575;-75
2022/01/06 06:29:37;;;;;;;2.77;2.40;;;0.10;99.90;;;;;;637150;224;26576;-75
2022/01/06 06:32:04;;;;;;;2.60;2.40;;;0.20;99.90;;;;;;637292;224;26793;-75
2022/01/06 06:34:32;;;;;;;6.00;2.20;;;0.10;99.90;;;;;;640318;224;26882;-74
2022/01/06 06:36:59;;;;;;;11.10;2.23;;;0.10;99.90;;;;;;640638;223;26576;-75
2022/01/06 06:39:26;;;;;;;8.67;2.50;;;0.10;99.90;;;;;;640545;224;27203;-75
2022/01/06 06:41:54;;;;;;;2.47;2.27;;;0.00;99.90;;;;;;638073;224;26593;-75
2022/01/06 06:44:22;;;;;;;4.10;2.43;;;-0.10;99.90;;;;;;639742;224;26568;-75
2022/01/06 06:46:49;;;;;;;2.80;2.47;;;-0.10;99.90;;;;;;640295;224;26826;-75
2022/01/06 06:49:16;;;;;;;3.17;2.30;;;-0.10;99.90;;;;;;642819;222;26607;-75
2022/01/06 06:51:43;;;;;;;2.60;1.87;;;0.00;99.90;;;;;;646944;222;26829;-75
2022/01/06 06:54:13;;;;;;;5.97;2.43;;;0.00;99.90;;;;;;647069;222;26532;-75
2022/01/06 06:56:39;;;;;;;4.40;2.20;;;0.10;99.90;;;;;;647870;221;26510;-75
2022/01/06 06:59:06;;;;;;;3.93;2.27;;;0.10;99.90;;;;;;638044;224;26592;-75
2022/01/06 07:01:33;;;;;;;3.27;2.43;;;0.00;99.90;;;;;;638568;224;26562;-74
2022/01/06 07:04:00;;;;;;;4.53;2.60;;;0.10;99.90;;;;;;626006;226;26531;-75
2022/01/06 07:06:27;;;;;;;5.23;2.50;;;0.00;99.90;;;;;;645752;222;26804;-76
2022/01/06 07:08:55;;;;;;;5.40;2.50;;;0.00;99.90;;;;;;646863;222;26587;-75
2022/01/06 07:11:23;;;;;;;5.93;2.40;;;0.00;99.90;;;;;;642365;222;26604;-75
2022/01/06 07:13:51;;;;;;;6.57;2.47;;;-0.10;99.90;;;;;;636775;224;26574;-75
2022/01/06 07:16:18;;;;;;;5.40;2.17;;;0.10;99.90;;;;;;640353;222;26569;-75
2022/01/06 07:18:45;;;;;;;3.93;2.40;;;-0.10;99.90;;;;;;641274;223;26802;-75
2022/01/06 07:21:12;;;;;;;4.57;2.53;;;0.00;99.90;;;;;;638067;223;26545;-75
2022/01/06 07:23:39;;;;;;;5.63;3.10;;;0.00;99.90;;;;;;639686;224;26947;-75
2022/01/06 07:26:07;;;;;;;7.13;2.97;;;0.00;99.90;;;;;;641138;224;26552;-75
2022/01/06 07:28:34;;;;;;;5.13;2.40;;;0.00;99.90;;;;;;637852;223;26523;-75
2022/01/06 07:31:04;;;;;;;4.60;3.20;;;0.10;99.90;;;;;;637682;224;26555;-75
2022/01/06 07:33:29;;;;;;;3.67;2.80;;;0.10;99.90;;;;;;642403;222;27222;-75
2022/01/06 07:35:56;;;;;;;4.47;2.63;;;0.00;99.90;;;;;;647511;222;26595;-75
2022/01/06 07:38:23;;;;;;;4.80;2.87;;;0.10;99.90;;;;;;638963;222;26605;-75
2022/01/06 07:40:50;;;;;;;5.23;2.83;;;0.00;99.90;;;;;;639979;223;26595;-75
2022/01/06 07:43:18;;;;;;;5.00;3.07;;;0.10;99.90;;;;;;637228;224;26543;-75
2022/01/06 07:45:45;;;;;;;5.83;2.60;;;0.10;99.90;;;;;;639268;224;26795;-74
2022/01/06 07:48:18;;;;;;;4.60;3.23;;;0.20;99.90;;;;;;640815;223;26553;-74
2022/01/06 07:50:43;;;;;;;6.50;3.40;;;0.10;99.90;;;;;;648134;221;26872;-85
2022/01/06 07:53:10;;;;;;;3.57;2.53;;;0.10;99.90;;;;;;646166;222;26798;-87
2022/01/06 07:55:38;;;;;;;5.77;2.77;;;0.20;99.90;;;;;;644885;222;26549;-88
2022/01/06 07:58:06;;;;;;;9.07;2.90;;;0.20;99.90;;;;;;637119;226;26580;-87
2022/01/06 08:00:33;;;;;;;3.03;2.80;;;0.20;99.90;;;;;;636995;224;26603;-88
2022/01/06 08:03:00;;;;;;;5.17;2.90;;;0.20;99.90;;;;;;639809;224;26571;-87
2022/01/06 08:05:28;;;;;;;6.20;3.60;;;0.20;99.90;;;;;;640553;224;26804;-88
2022/01/06 08:07:55;;;;;;;3.87;3.03;;;0.10;99.90;;;;;;640836;224;26534;-88
2022/01/06 08:10:23;;;;;;;4.00;2.50;;;0.20;99.90;;;;;;640754;219;26555;-88
2022/01/06 08:12:50;;;;;;;2.77;2.30;;;0.20;99.90;;;;;;638031;224;26635;-88
2022/01/06 08:15:18;;;;;;;3.53;2.50;;;0.30;99.90;;;;;;637186;225;26594;-87
2022/01/06 08:17:45;;;;;;;5.97;2.53;;;0.30;99.90;;;;;;637285;224;27083;-89
2022/01/06 08:20:12;;;;;;;2.73;2.53;;;0.40;99.90;;;;;;637289;221;26615;-88
2022/01/06 08:22:45;;;;;;;5.77;2.87;;;0.40;99.90;;;;;;637344;225;26570;-88
2022/01/06 08:25:12;;;;;;;4.00;2.40;;;0.40;99.90;;;;;;637350;224;26597;-88
2022/01/06 08:27:39;;;;;;;5.53;2.67;;;0.30;99.90;;;;;;637961;223;26796;-87
2022/01/06 08:30:07;;;;;;;4.10;2.80;;;0.40;99.90;;;;;;638972;220;26595;-86
2022/01/06 08:32:35;;;;;;;4.53;2.43;;;0.40;99.90;;;;;;640717;224;26566;-86
2022/01/06 08:35:03;;;;;;;6.87;2.50;;;0.40;99.90;;;;;;641820;223;26568;-86
2022/01/06 08:37:30;;;;;;;4.23;2.50;;;0.40;99.90;;;;;;641582;223;26529;-87
2022/01/06 08:39:57;;;;;;;4.63;2.63;;;0.50;99.90;;;;;;641512;224;26809;-86
2022/01/06 08:42:24;;;;;;;4.07;2.37;;;0.50;99.90;;;;;;641493;223;26505;-81
2022/01/06 08:44:52;;;;;;;2.97;2.43;;;0.50;99.90;;;;;;641414;223;26521;-81
2022/01/06 08:47:20;;;;;;;4.07;2.33;;;0.50;99.90;;;;;;641006;224;26580;-81
2022/01/06 08:49:47;;;;;;;2.90;2.33;;;0.50;99.90;;;;;;640981;224;26605;-81
2022/01/06 08:52:14;;;;;;;5.93;2.63;;;0.60;99.90;;;;;;640988;223;26551;-82
2022/01/06 08:54:41;;;;;;;4.80;2.07;;;0.60;99.90;;;;;;638585;223;26807;-81
2022/01/06 08:57:09;;;;;;;3.30;2.70;;;0.70;99.90;;;;;;640420;224;26536;-82
2022/01/06 08:59:37;;;;;;;4.53;2.47;;;0.70;99.90;;;;;;642562;222;26581;-81
2022/01/06 09:02:04;;;;;;;5.47;2.50;;;0.60;99.90;;;;;;646053;222;27246;-81
2022/01/06 09:04:32;;;;;;;5.93;2.73;;;0.80;99.90;;;;;;638405;224;26598;-82
2022/01/06 09:07:02;;;;;;;3.07;2.27;;;0.80;99.90;;;;;;640382;224;26513;-80
2022/01/06 09:09:27;;;;;;;3.20;2.40;;;0.90;99.90;;;;;;640309;224;26543;-82
2022/01/06 09:11:54;;;;;;;4.10;2.30;;;0.90;99.90;;;;;;640430;224;26576;-81
2022/01/06 09:14:22;;;;;;;7.13;2.50;;;1.00;99.90;;;;;;639891;224;26833;-81
2022/01/06 09:16:48;;;;;;;3.63;2.13;;;1.10;99.90;;;;;;638660;219;26567;-80
2022/01/06 09:19:17;;;;;;;2.17;1.97;;;1.00;99.90;;;;;;642416;219;26534;-81
2022/01/06 09:21:44;;;;;;;3.67;2.47;;;1.00;99.90;;;;;;637396;224;26590;-84
2022/01/06 09:24:11;;;;;;;2.40;2.20;;;1.00;99.90;;;;;;637763;221;26560;-83
2022/01/06 09:26:38;;;;;;;5.27;2.63;;;1.20;99.90;;;;;;647736;221;26928;-81
2022/01/06 09:29:06;;;;;;;4.03;2.50;;;1.20;99.90;;;;;;649922;221;26493;-85
2022/01/06 09:31:33;;;;;;;3.57;2.37;;;1.20;99.90;;;;;;648715;221;26591;-81
2022/01/06 09:34:02;;;;;;;6.33;2.43;;;1.20;99.90;;;;;;647340;222;26569;-82
2022/01/06 09:36:28;;;;;;;4.07;2.33;;;1.20;99.90;;;;;;647461;222;27291;-85
2022/01/06 09:38:55;;;;;;;2.97;2.30;;;1.30;99.90;;;;;;647575;220;26579;-83
2022/01/06 09:41:22;;;;;;;3.20;2.20;;;1.30;99.90;;;;;;649109;216;26860;-84
2022/01/06 09:43:52;;;;;;;4.37;2.43;;;1.30;99.90;;;;;;648771;222;26495;-83
2022/01/06 09:46:20;;;;;;;5.37;2.40;;;1.30;99.90;;;;;;648423;221;26577;-84
2022/01/06 09:48:46;;;;;;;8.03;3.47;;;1.30;99.90;;;;;;648149;222;26796;-84
2022/01/06 09:51:14;;;;;;;3.73;2.13;;;1.50;99.90;;;;;;638470;222;26777;-83
2022/01/06 09:53:42;;;;;;;3.10;2.23;;;1.50;99.90;;;;;;643490;222;26520;-83
2022/01/06 09:56:10;;;;;;;7.70;2.30;;;1.50;99.90;;;;;;647967;222;26505;-83
2022/01/06 09:58:37;;;;;;;2.70;2.37;;;1.50;99.90;;;;;;647648;222;26541;-82
2022/01/06 10:01:04;;;;;;;5.93;2.43;;;1.60;99.90;;;;;;639129;222;26845;-85
2022/01/06 10:03:35;;;;;;;3.10;2.67;;;1.80;99.90;;;;;;637671;225;26573;-82
2022/01/06 10:06:09;;;;;;;4.87;2.70;;;1.90;99.90;;;;;;639780;224;26573;-84
2022/01/06 10:08:36;;;;;;;3.83;2.17;;;1.80;99.90;;;;;;640957;222;27226;-84
2022/01/06 10:11:11;;;;;;;3.10;2.80;;;1.90;99.90;;;;;;641003;224;26587;-85
2022/01/06 10:13:38;;;;;;;5.30;2.60;;;1.90;99.90;;;;;;640940;223;26789;-84
2022/01/06 10:16:12;;;;;;;3.43;2.57;;;2.00;99.90;;;;;;639010;223;26580;-82
2022/01/06 10:18:40;;;;;;;3.07;2.60;;;2.00;99.90;;;;;;636873;224;26571;-81
2022/01/06 10:21:11;;;;;;;4.53;2.40;;;2.10;99.90;;;;;;639936;221;26577;-83
2022/01/06 10:23:39;;;;;;;3.87;2.37;;;2.10;99.90;;;;;;640020;224;26901;-81
2022/01/06 10:26:12;;;;;;;9.13;2.33;;;2.10;99.90;;;;;;641220;222;26563;-81
2022/01/06 10:28:39;;;;;;;8.97;2.27;;;2.10;99.90;;;;;;640405;222;27249;-81
2022/01/06 10:31:06;;;;;;;7.00;2.27;;;2.20;99.90;;;;;;640905;222;26591;-81
2022/01/06 10:33:35;;;;;;;5.50;2.90;;;2.10;99.90;;;;;;647073;222;27400;-82
2022/01/06 10:36:05;;;;;;;2.20;1.93;;;2.10;99.90;;;;;;646892;222;26571;-82
2022/01/06 10:38:32;;;;;;;2.57;2.10;;;2.20;99.90;;;;;;647129;221;26590;-81
2022/01/06 10:41:10;;;;;;;4.87;2.23;;;2.30;99.90;;;;;;647224;222;26583;-79
2022/01/06 10:43:37;;;;;;;4.73;2.30;;;2.30;99.90;;;;;;647242;222;26570;-79
2022/01/06 10:46:04;;;;;;;2.70;2.17;;;2.30;99.90;;;;;;647259;222;26797;-83
2022/01/06 10:48:32;;;;;;;3.63;2.10;;;2.40;99.90;;;;;;647267;222;26582;-81
2022/01/06 10:51:00;;;;;;;2.30;2.20;;;2.40;99.90;;;;;;647890;220;26589;-82
2022/01/06 10:53:27;;;;;;;3.87;2.50;;;2.40;99.90;;;;;;648851;221;26835;-80
2022/01/06 10:55:54;;;;;;;5.57;2.33;;;2.50;99.90;;;;;;649342;221;26512;-79
2022/01/06 10:58:22;;;;;;;7.63;2.33;;;2.60;99.90;;;;;;649192;221;26788;-79
2022/01/06 11:01:00;;;;;;;4.07;2.17;;;2.60;99.90;;;;;;639905;221;26594;-79
2022/01/06 11:03:26;;;;;;;4.37;2.10;;;2.60;99.90;;;;;;651408;221;26520;-81
2022/01/06 11:05:53;;;;;;;4.40;2.40;;;2.70;99.90;;;;;;651254;221;26542;-80
2022/01/06 11:08:23;;;;;;;5.33;2.40;;;2.80;99.90;;;;;;651470;221;26506;-80
2022/01/06 11:11:02;;;;;;;5.30;2.13;;;2.70;99.90;;;;;;650933;221;26829;-78
2022/01/06 11:13:17;;;;;;;6.13;2.43;;;2.70;99.90;;;;;;644627;221;26564;-80
2022/01/06 11:15:44;;;;;;;4.10;2.10;;;2.70;99.90;;;;;;638097;224;26569;-80
2022/01/06 11:18:20;;;;;;;5.77;2.60;;;2.80;99.90;;;;;;638993;223;26563;-81
2022/01/06 11:20:47;;;;;;;4.93;2.83;;;2.80;99.90;;;;;;637105;224;26640;-82
2022/01/06 11:23:21;;;;;;;3.90;2.30;;;2.70;99.90;;;;;;637300;224;26580;-81
2022/01/06 11:25:48;;;;;;;4.47;2.13;;;2.70;99.90;;;;;;637194;225;26564;-81
2022/01/06 11:28:15;;;;;;;3.80;1.87;;;2.80;99.90;;;;;;635977;225;26893;-81
2022/01/06 11:30:45;;;;;;;4.33;2.37;;;2.80;99.90;;;;;;639224;219;26605;-80
2022/01/06 11:33:13;;;;;;;3.57;2.10;;;2.80;99.90;;;;;;640905;223;26517;-86
2022/01/06 11:35:54;;;;;;;3.27;2.20;;;2.80;99.90;;;;;;640107;224;26504;-80
2022/01/06 11:38:23;;;;;;;2.97;1.80;;;2.90;99.90;;;;;;639429;224;26509;-83
2022/01/06 11:40:50;;;;;;;7.93;2.13;;;3.00;99.90;;;;;;639203;222;26559;-81
2022/01/06 11:43:17;;;;;;;2.17;1.90;;;2.90;99.90;;;;;;640714;221;26793;-84
2022/01/06 11:45:44;;;;;;;2.47;2.23;;;3.10;99.90;;;;;;640265;219;26540;-80
2022/01/06 11:48:14;;;;;;;2.87;1.80;;;3.40;99.90;;;;;;639147;224;26768;-80
2022/01/06 11:50:40;;;;;;;4.07;2.10;;;3.40;99.90;;;;;;639887;221;26585;-80
2022/01/06 11:53:08;;;;;;;6.57;2.17;;;3.40;99.90;;;;;;640272;223;27232;-80
2022/01/06 11:55:38;;;;;;;2.43;1.97;;;3.20;99.90;;;;;;639380;224;26578;-79
2022/01/06 11:58:13;;;;;;;3.00;2.37;;;3.20;99.90;;;;;;636909;224;26603;-80
2022/01/06 12:00:42;;;;;;;4.63;2.10;;;3.20;99.90;;;;;;638019;224;26599;-80
2022/01/06 12:03:10;;;;;;;4.50;1.97;;;3.10;99.80;;;;;;637701;223;26583;-80
2022/01/06 12:05:48;;;;;;;3.53;2.03;;;3.10;99.60;;;;;;637848;223;26587;-83
2022/01/06 12:08:14;;;;;;;2.37;2.00;;;3.20;98.90;;;;;;637673;222;26598;-80
2022/01/06 12:10:42;;;;;;;6.60;2.13;;;3.10;98.70;;;;;;637646;218;26846;-79
2022/01/06 12:13:10;;;;;;;5.37;2.27;;;3.20;98.70;;;;;;637342;224;26511;-79
2022/01/06 12:15:52;;;;;;;6.17;1.90;;;3.30;98.50;;;;;;639979;223;26605;-79
2022/01/06 12:18:21;;;;;;;3.10;2.00;;;3.30;98.50;;;;;;637407;224;26512;-79
2022/01/06 12:20:49;;;;;;;3.33;2.10;;;3.50;98.20;;;;;;637374;224;26620;-79
2022/01/06 12:23:16;;;;;;;5.40;2.10;;;3.50;98.20;;;;;;637156;225;26890;-79
2022/01/06 12:25:58;;;;;;;4.30;1.93;;;3.40;97.80;;;;;;637151;225;26585;-79
2022/01/06 12:28:26;;;;;;;1.83;1.63;;;3.40;96.50;;;;;;637164;225;26618;-79
2022/01/06 12:30:56;;;;;;;3.30;2.07;;;3.40;96.50;;;;;;636950;225;26852;-79
2022/01/06 12:33:24;;;;;;;3.33;1.90;;;3.60;96.80;;;;;;645746;221;26636;-79
2022/01/06 12:35:52;;;;;;;3.10;1.90;;;3.80;97.10;;;;;;638609;224;26552;-78
2022/01/06 12:38:26;;;;;;;4.20;1.73;;;3.80;97.10;;;;;;640351;223;26792;-78
2022/01/06 12:40:54;;;;;;;6.57;3.10;;;3.70;95.10;;;;;;640236;224;26584;-78
2022/01/06 12:43:22;;;;;;;3.33;2.10;;;3.70;94.30;;;;;;639053;224;26766;-79
2022/01/06 12:45:59;;;;;;;5.47;2.17;;;3.70;93.30;;;;;;636870;224;26591;-79
2022/01/06 12:48:30;;;;;;;4.03;2.07;;;3.60;92.80;;;;;;636592;225;26842;-78
2022/01/06 12:50:58;;;;;;;5.77;1.93;;;3.70;93.40;;;;;;637196;224;26631;-78
2022/01/06 12:53:26;;;;;;;5.50;2.17;;;3.60;93.30;;;;;;637410;224;26560;-79
2022/01/06 12:55:53;;;;;;;4.97;2.40;;;3.70;92.00;;;;;;638945;224;26579;-77
2022/01/06 12:58:23;;;;;;;2.27;1.90;;;3.80;92.40;;;;;;636710;224;26605;-78
2022/01/06 13:00:52;;;;;;;3.70;1.80;;;3.60;91.70;;;;;;636859;221;26611;-78
2022/01/06 13:03:26;;;;;;;3.37;2.00;;;3.70;92.30;;;;;;636855;225;26797;-78
2022/01/06 13:05:54;;;;;;;2.67;1.80;;;3.50;91.10;;;;;;636851;226;26861;-78